Terminal Aerodrome Forecast
Issued by NWS

Home | Current Version | Previous Version | Text Only | Print | Product List | Glossary On
Versions: 1 2 3 4 5 6 7 8 9 10 11 12 13 14 15 16 17 18 19 20 21 22 23 24 25
358
FTUS43 KDTX 062332
TAFPTK
TAF
KPTK 062332Z 0700/0724 VRB05KT P6SM SKC
     FM070500 VRB04KT P6SM SCT150
     FM070900 19005KT P6SM -SHRA SCT050 BKN100
     FM071400 26010KT P6SM SHRA BKN045 OVC060 PROB30 0714/0717 2SM
      TSRA OVC025CB
     FM071800 31015G22KT P6SM BKN028=

USA.gov is the U.S. government's official web portal to all federal, state and local government web resources and services.